Time;durP1;ratioP1;P1;durP2;ratioP2;P2;SDS_P1;SDS_P2;PMS_P1;PMS_P2;Temp;Humidity;BMP_temperature;BMP_pressure;BME280_temperature;BME280_humidity;BME280_pressure;Samples;Min_cycle;Max_cycle;Signal;HPM_P1;HPM_P2
2023/06/10 00:01:39;;;;;;;6.23;5.63;;;14.10;99.90;;;;;;5047275;28;20484;-83
2023/06/10 00:04:06;;;;;;;7.17;6.17;;;14.10;99.90;;;;;;5047304;28;20499;-85
2023/06/10 00:06:35;;;;;;;7.03;6.40;;;14.00;99.90;;;;;;5042996;28;21009;-79
2023/06/10 00:09:05;;;;;;;7.90;7.20;;;14.00;99.90;;;;;;5046314;28;20453;-77
2023/06/10 00:11:33;;;;;;;7.73;7.00;;;14.10;99.90;;;;;;5045072;28;20991;-80
2023/06/10 00:14:00;;;;;;;6.37;5.83;;;14.00;99.90;;;;;;5035972;28;21005;-86
2023/06/10 00:16:27;;;;;;;7.00;6.40;;;14.00;99.90;;;;;;5044576;28;20514;-79
2023/06/10 00:18:55;;;;;;;8.13;7.30;;;13.90;99.90;;;;;;5046474;28;21100;-80
2023/06/10 00:21:24;;;;;;;6.93;6.43;;;13.80;99.90;;;;;;5046746;28;20461;-82
2023/06/10 00:23:51;;;;;;;7.40;6.80;;;13.80;99.90;;;;;;5038316;28;20470;-82
2023/06/10 00:26:20;;;;;;;8.97;8.17;;;13.80;99.90;;;;;;5046712;28;20437;-78
2023/06/10 00:28:47;;;;;;;7.67;6.97;;;13.90;99.90;;;;;;5045544;28;20951;-79
2023/06/10 00:31:14;;;;;;;13.30;7.80;;;13.80;99.90;;;;;;5043681;28;20505;-80
2023/06/10 00:33:40;;;;;;;8.43;6.23;;;13.80;99.90;;;;;;5043312;28;20980;-80
2023/06/10 00:36:08;;;;;;;8.30;6.80;;;13.70;99.90;;;;;;5045385;28;20531;-83
2023/06/10 00:38:34;;;;;;;8.93;8.13;;;13.70;99.90;;;;;;5045943;28;20457;-79
2023/06/10 00:41:01;;;;;;;8.50;7.70;;;13.70;99.90;;;;;;5046188;28;20477;-80
2023/06/10 00:43:30;;;;;;;9.80;7.87;;;13.70;99.90;;;;;;5045919;28;20507;-80
2023/06/10 00:45:57;;;;;;;8.43;7.57;;;13.70;99.90;;;;;;5046212;28;20526;-79
2023/06/10 00:48:24;;;;;;;8.73;7.93;;;13.70;99.90;;;;;;5046014;28;20465;-85
2023/06/10 00:50:51;;;;;;;8.90;8.00;;;13.70;99.90;;;;;;5043046;28;20460;-81
2023/06/10 00:53:19;;;;;;;8.63;7.73;;;13.70;99.90;;;;;;5045011;28;20518;-83
2023/06/10 00:55:46;;;;;;;9.40;8.50;;;13.70;99.90;;;;;;5045401;28;20457;-80
2023/06/10 00:58:13;;;;;;;8.47;7.77;;;13.80;99.90;;;;;;5046785;28;20518;-79
2023/06/10 01:00:42;;;;;;;8.87;8.20;;;13.80;99.90;;;;;;5042221;28;20983;-83
2023/06/10 01:03:09;;;;;;;8.40;7.60;;;13.70;99.90;;;;;;5050579;28;20498;-78
2023/06/10 01:05:37;;;;;;;7.97;7.27;;;13.70;99.90;;;;;;5048710;28;20546;-80
2023/06/10 01:08:10;;;;;;;8.93;8.13;;;13.60;99.90;;;;;;5050373;28;20472;-79
2023/06/10 01:10:42;;;;;;;10.90;8.90;;;13.60;99.90;;;;;;5050683;28;20534;-81
2023/06/10 01:13:12;;;;;;;8.40;7.53;;;13.60;99.90;;;;;;5049639;28;20563;-79
2023/06/10 01:15:41;;;;;;;8.43;7.50;;;13.60;99.90;;;;;;5041413;28;20445;-82
2023/06/10 01:18:14;;;;;;;10.23;7.30;;;13.50;99.90;;;;;;5040811;28;20457;-82
2023/06/10 01:20:43;;;;;;;7.60;6.80;;;13.50;99.90;;;;;;5047311;28;20471;-83
2023/06/10 01:23:12;;;;;;;7.63;6.93;;;13.40;99.90;;;;;;5049424;28;20554;-79
2023/06/10 01:25:44;;;;;;;8.47;7.67;;;13.40;99.90;;;;;;5049194;28;20465;-80
2023/06/10 01:28:15;;;;;;;8.23;7.53;;;13.40;99.90;;;;;;5049883;28;20520;-80
2023/06/10 01:30:49;;;;;;;9.43;8.27;;;13.50;99.90;;;;;;5043204;28;20527;-82
2023/06/10 01:33:19;;;;;;;9.10;8.30;;;13.60;99.90;;;;;;5049672;28;21132;-79
2023/06/10 01:35:48;;;;;;;9.63;8.37;;;13.60;99.90;;;;;;5048941;28;20817;-79
2023/06/10 01:38:18;;;;;;;9.17;8.23;;;13.50;99.90;;;;;;5047519;28;20472;-84
2023/06/10 01:40:46;;;;;;;10.93;9.93;;;13.50;99.90;;;;;;5048599;28;20499;-79
2023/06/10 01:43:14;;;;;;;9.67;8.87;;;13.60;99.90;;;;;;5048817;28;20465;-79
2023/06/10 01:45:41;;;;;;;11.40;10.30;;;13.50;99.90;;;;;;5043567;28;20998;-81
2023/06/10 01:48:08;;;;;;;9.43;8.60;;;13.50;99.90;;;;;;5041327;28;20607;-81
2023/06/10 01:50:35;;;;;;;10.20;9.17;;;13.40;99.90;;;;;;5049293;28;20492;-79
2023/06/10 01:53:02;;;;;;;10.37;9.37;;;13.40;99.90;;;;;;5049822;28;20662;-79
2023/06/10 01:55:30;;;;;;;11.60;10.50;;;13.50;99.90;;;;;;5045491;28;20456;-82
2023/06/10 01:57:57;;;;;;;10.97;10.07;;;13.50;99.90;;;;;;5048453;28;20484;-82
2023/06/10 02:00:24;;;;;;;10.17;9.17;;;13.40;99.90;;;;;;5045260;28;20538;-80
2023/06/10 02:02:51;;;;;;;9.80;8.80;;;13.40;99.90;;;;;;5049240;28;20526;-84
2023/06/10 02:05:18;;;;;;;9.83;8.73;;;13.40;99.90;;;;;;5042484;28;20485;-81
2023/06/10 02:07:45;;;;;;;9.20;8.20;;;13.30;99.90;;;;;;5048136;28;20964;-81
2023/06/10 02:10:12;;;;;;;11.13;10.03;;;13.20;99.90;;;;;;5048965;28;20472;-79
2023/06/10 02:12:40;;;;;;;11.17;9.47;;;13.20;99.90;;;;;;5044278;28;21178;-81
2023/06/10 02:15:07;;;;;;;9.47;8.30;;;13.10;99.90;;;;;;5049007;28;20437;-79
2023/06/10 02:17:34;;;;;;;12.03;9.87;;;13.10;99.90;;;;;;5048962;28;20493;-79
2023/06/10 02:20:06;;;;;;;12.10;10.90;;;13.00;99.90;;;;;;5046831;28;20453;-79
2023/06/10 02:22:34;;;;;;;14.27;10.43;;;13.00;99.90;;;;;;5048586;28;20477;-80
2023/06/10 02:25:01;;;;;;;9.67;8.77;;;13.00;99.90;;;;;;5044139;28;20449;-81
2023/06/10 02:27:28;;;;;;;12.10;10.80;;;12.90;99.90;;;;;;5047638;28;20804;-79
2023/06/10 02:29:57;;;;;;;10.63;9.63;;;12.90;99.90;;;;;;5048832;28;20444;-79
2023/06/10 02:32:25;;;;;;;10.77;9.80;;;13.00;99.90;;;;;;5043814;28;20548;-82
2023/06/10 02:34:52;;;;;;;10.17;9.27;;;12.90;99.90;;;;;;5048328;28;20449;-81
2023/06/10 02:37:19;;;;;;;9.53;8.43;;;12.90;99.90;;;;;;5048860;28;20532;-81
2023/06/10 02:39:46;;;;;;;10.33;9.30;;;13.00;99.90;;;;;;5047984;28;20800;-79
2023/06/10 02:42:13;;;;;;;10.77;9.87;;;12.90;99.90;;;;;;5042518;28;20492;-79
2023/06/10 02:44:40;;;;;;;9.00;8.20;;;12.90;99.90;;;;;;5047086;28;20480;-79
2023/06/10 02:47:08;;;;;;;10.70;9.50;;;12.90;99.90;;;;;;5043691;28;20573;-80
2023/06/10 02:49:35;;;;;;;8.40;7.70;;;12.90;99.90;;;;;;5044485;28;21060;-79
2023/06/10 02:52:02;;;;;;;10.73;8.87;;;12.90;99.90;;;;;;5048101;28;20550;-79
2023/06/10 02:54:29;;;;;;;10.87;9.77;;;12.90;99.90;;;;;;5041618;28;20437;-81
2023/06/10 02:56:56;;;;;;;9.70;8.70;;;12.90;99.90;;;;;;5047359;28;20994;-78
2023/06/10 02:59:23;;;;;;;10.23;9.23;;;12.90;99.90;;;;;;5047001;28;20485;-78
2023/06/10 03:01:50;;;;;;;9.77;8.97;;;12.80;99.90;;;;;;5045394;28;20465;-79
2023/06/10 03:04:18;;;;;;;10.30;9.40;;;12.80;99.90;;;;;;5039508;28;20476;-80
2023/06/10 03:06:46;;;;;;;10.43;9.47;;;12.90;99.90;;;;;;5044650;28;20926;-79
2023/06/10 03:09:14;;;;;;;13.07;10.17;;;13.00;99.90;;;;;;5042828;28;20475;-79
2023/06/10 03:11:41;;;;;;;11.60;10.33;;;13.00;99.90;;;;;;5041046;28;20936;-84
2023/06/10 03:14:08;;;;;;;13.97;10.37;;;13.00;99.90;;;;;;5047989;28;20441;-79
2023/06/10 03:16:35;;;;;;;11.10;10.07;;;12.90;99.90;;;;;;5046509;28;21011;-81
2023/06/10 03:19:02;;;;;;;11.33;9.90;;;12.90;99.90;;;;;;5047820;28;20469;-79
2023/06/10 03:21:30;;;;;;;10.40;9.30;;;12.90;99.90;;;;;;5047134;28;20843;-78
2023/06/10 03:23:57;;;;;;;12.13;10.90;;;12.80;99.90;;;;;;5046544;28;20449;-81
2023/06/10 03:26:24;;;;;;;12.50;11.27;;;12.80;99.90;;;;;;5040798;28;20453;-79
2023/06/10 03:28:51;;;;;;;9.63;8.50;;;12.80;99.90;;;;;;5047448;28;20507;-81
2023/06/10 03:31:18;;;;;;;9.50;8.50;;;12.80;99.90;;;;;;5040551;28;21557;-80
2023/06/10 03:33:45;;;;;;;8.63;7.83;;;12.70;99.90;;;;;;5047327;28;20504;-83
2023/06/10 03:36:12;;;;;;;8.50;7.90;;;12.70;99.90;;;;;;5046199;28;20775;-79
2023/06/10 03:38:40;;;;;;;9.73;8.57;;;12.70;99.90;;;;;;5047489;28;20452;-79
2023/06/10 03:41:07;;;;;;;8.53;7.73;;;12.80;99.90;;;;;;5033029;28;20477;-79
2023/06/10 03:43:34;;;;;;;9.27;8.47;;;12.80;99.90;;;;;;5048011;28;20460;-79
2023/06/10 03:46:01;;;;;;;8.87;7.90;;;12.90;99.90;;;;;;5042854;28;20990;-79
2023/06/10 03:48:28;;;;;;;10.43;8.87;;;13.00;99.90;;;;;;5046355;28;20465;-79
2023/06/10 03:50:55;;;;;;;9.67;8.77;;;13.10;99.90;;;;;;5042479;28;20546;-80
2023/06/10 03:53:22;;;;;;;10.80;9.20;;;13.30;99.90;;;;;;5045974;28;20574;-82
2023/06/10 03:55:50;;;;;;;9.43;8.40;;;13.50;99.90;;;;;;5046954;28;20453;-81
2023/06/10 03:58:17;;;;;;;9.37;8.47;;;13.60;99.90;;;;;;5044385;28;21156;-80
2023/06/10 04:00:45;;;;;;;9.77;8.77;;;13.70;99.90;;;;;;5038262;28;20453;-79
2023/06/10 04:03:14;;;;;;;9.33;8.53;;;13.80;99.90;;;;;;5047331;28;20446;-84
2023/06/10 04:05:42;;;;;;;8.87;8.00;;;13.80;99.90;;;;;;5042892;28;20488;-79
2023/06/10 04:08:09;;;;;;;10.37;9.13;;;13.80;99.90;;;;;;5046132;28;20456;-80
2023/06/10 04:10:36;;;;;;;8.30;7.60;;;13.90;99.90;;;;;;5047192;28;20506;-80
2023/06/10 04:13:04;;;;;;;9.43;8.37;;;14.00;99.90;;;;;;5041371;28;20481;-80
2023/06/10 04:15:33;;;;;;;8.73;8.03;;;14.30;99.90;;;;;;5046528;28;20445;-80
2023/06/10 04:18:00;;;;;;;9.07;8.27;;;14.60;99.90;;;;;;5046506;28;20977;-78
2023/06/10 04:20:29;;;;;;;8.60;7.80;;;14.60;99.90;;;;;;5042779;28;20544;-79
2023/06/10 04:22:56;;;;;;;10.60;9.60;;;14.70;99.90;;;;;;5045518;28;20461;-79
2023/06/10 04:25:24;;;;;;;8.57;7.90;;;14.70;99.90;;;;;;5046332;28;20433;-78
2023/06/10 04:27:51;;;;;;;9.43;8.43;;;14.70;99.90;;;;;;5046837;28;20829;-79
2023/06/10 04:30:19;;;;;;;10.83;9.30;;;14.80;99.90;;;;;;5042349;28;20593;-78
2023/06/10 04:32:46;;;;;;;9.73;8.87;;;14.80;99.90;;;;;;5045177;28;20521;-83
2023/06/10 04:35:14;;;;;;;11.83;9.97;;;14.80;99.90;;;;;;5043580;28;20543;-81
2023/06/10 04:37:41;;;;;;;9.40;8.47;;;14.80;99.90;;;;;;5046465;28;20519;-79
2023/06/10 04:40:09;;;;;;;11.07;9.37;;;14.90;99.90;;;;;;5046720;28;20456;-81
2023/06/10 04:42:36;;;;;;;14.23;9.93;;;14.80;99.90;;;;;;5045302;28;20526;-74
2023/06/10 04:45:04;;;;;;;9.90;9.00;;;15.00;99.90;;;;;;5046457;28;20971;-81
2023/06/10 04:47:33;;;;;;;10.47;9.20;;;15.10;99.90;;;;;;5045239;28;20449;-80
2023/06/10 04:50:00;;;;;;;11.17;10.00;;;15.00;99.90;;;;;;5039971;28;20433;-79
2023/06/10 04:52:27;;;;;;;10.50;9.50;;;14.90;99.90;;;;;;5045165;28;20446;-81
2023/06/10 04:54:55;;;;;;;10.47;9.37;;;14.80;99.90;;;;;;5046158;28;20441;-80
2023/06/10 04:57:22;;;;;;;10.63;9.53;;;14.80;99.90;;;;;;5045220;28;20511;-79
2023/06/10 04:59:49;;;;;;;8.93;8.13;;;15.00;99.90;;;;;;5045724;28;20513;-81
2023/06/10 05:02:16;;;;;;;9.90;8.70;;;15.10;99.90;;;;;;5046408;28;20445;-79
2023/06/10 05:04:44;;;;;;;9.90;9.03;;;15.20;99.90;;;;;;5045738;28;20477;-79
2023/06/10 05:07:11;;;;;;;8.93;8.17;;;15.10;99.90;;;;;;5044693;28;20453;-80
2023/06/10 05:09:38;;;;;;;9.20;8.30;;;15.40;99.90;;;;;;5045408;28;20453;-80
2023/06/10 05:12:06;;;;;;;9.50;8.70;;;15.60;99.90;;;;;;5044930;28;20511;-81
2023/06/10 05:14:33;;;;;;;10.20;9.30;;;15.70;99.90;;;;;;5038598;28;20478;-79
2023/06/10 05:17:00;;;;;;;10.10;9.20;;;15.90;99.90;;;;;;5043917;28;20457;-82
2023/06/10 05:19:27;;;;;;;9.73;8.83;;;16.00;99.90;;;;;;5047049;28;20449;-79
2023/06/10 05:21:55;;;;;;;8.23;7.53;;;16.20;99.90;;;;;;5045698;28;20441;-77
2023/06/10 05:24:22;;;;;;;8.77;8.13;;;16.20;99.90;;;;;;5043372;28;20497;-77
2023/06/10 05:26:50;;;;;;;9.10;8.40;;;16.20;99.90;;;;;;5040351;28;20441;-77
2023/06/10 05:29:17;;;;;;;8.37;7.60;;;16.10;99.90;;;;;;5044090;28;20802;-83
2023/06/10 05:31:44;;;;;;;9.50;8.33;;;16.10;99.90;;;;;;5045800;28;21026;-82
2023/06/10 05:34:10;;;;;;;8.90;8.00;;;16.30;99.90;;;;;;5043736;28;20512;-81
2023/06/10 05:36:37;;;;;;;9.57;8.77;;;16.70;99.90;;;;;;5044312;28;20465;-80
2023/06/10 05:39:06;;;;;;;8.50;7.60;;;16.70;99.90;;;;;;5041368;28;20442;-84
2023/06/10 05:41:33;;;;;;;9.13;8.33;;;16.90;99.90;;;;;;5045967;28;20446;-82
2023/06/10 05:43:59;;;;;;;9.10;8.30;;;17.10;99.90;;;;;;5046360;28;20539;-79
2023/06/10 05:46:26;;;;;;;9.50;8.77;;;17.20;99.90;;;;;;5049924;28;20496;-82
2023/06/10 05:48:53;;;;;;;9.87;8.70;;;17.30;99.90;;;;;;5048487;28;20934;-82
2023/06/10 05:51:20;;;;;;;9.33;8.47;;;17.20;99.90;;;;;;5049073;28;20911;-79
2023/06/10 05:53:47;;;;;;;9.13;8.40;;;17.20;99.90;;;;;;5048107;28;20508;-80
2023/06/10 05:56:16;;;;;;;9.23;8.50;;;17.50;99.90;;;;;;5048952;28;20465;-79
2023/06/10 05:58:43;;;;;;;8.50;7.80;;;17.60;99.90;;;;;;5047951;28;20488;-79
2023/06/10 06:01:10;;;;;;;8.93;8.13;;;17.60;99.90;;;;;;5048454;28;20477;-78
2023/06/10 06:03:37;;;;;;;8.27;7.57;;;17.60;99.90;;;;;;5048777;28;21077;-79
2023/06/10 06:06:04;;;;;;;8.60;7.90;;;17.60;99.90;;;;;;5044347;28;20514;-81
2023/06/10 06:08:31;;;;;;;6.17;5.73;;;17.30;99.90;;;;;;5048202;28;20430;-79
2023/06/10 06:10:59;;;;;;;7.33;6.67;;;17.40;99.90;;;;;;5042418;28;20536;-81
2023/06/10 06:13:27;;;;;;;7.30;6.70;;;17.70;99.90;;;;;;5045847;28;20554;-80
2023/06/10 06:15:54;;;;;;;6.97;6.27;;;17.60;99.90;;;;;;5044715;28;20922;-79
2023/06/10 06:18:21;;;;;;;6.20;5.70;;;17.60;99.90;;;;;;5044229;28;20459;-76
2023/06/10 06:20:48;;;;;;;6.73;6.13;;;17.70;99.90;;;;;;5046416;28;20503;-79
2023/06/10 06:23:15;;;;;;;6.37;5.87;;;18.00;99.90;;;;;;5048548;28;20472;-81
2023/06/10 06:25:42;;;;;;;7.40;6.70;;;17.70;99.90;;;;;;5048623;28;20477;-79
2023/06/10 06:28:09;;;;;;;6.67;6.10;;;17.80;99.90;;;;;;5046090;28;20459;-80
2023/06/10 06:30:38;;;;;;;6.87;6.33;;;18.20;99.90;;;;;;5047986;28;20511;-81
2023/06/10 06:33:05;;;;;;;6.30;5.80;;;18.30;99.90;;;;;;5043367;28;20516;-85
2023/06/10 06:35:33;;;;;;;7.00;6.37;;;18.00;99.90;;;;;;5046528;28;20517;-79
2023/06/10 06:38:00;;;;;;;6.77;6.27;;;18.10;99.90;;;;;;5051266;28;20925;-80
2023/06/10 06:40:27;;;;;;;7.60;6.30;;;18.50;99.90;;;;;;5050746;28;20525;-80
2023/06/10 06:42:54;;;;;;;5.77;5.37;;;18.50;99.90;;;;;;5046275;28;20513;-81
2023/06/10 06:45:21;;;;;;;5.80;5.30;;;18.50;99.90;;;;;;5044648;28;20525;-81
2023/06/10 06:47:50;;;;;;;6.27;5.67;;;18.50;99.90;;;;;;5047538;28;20500;-80
2023/06/10 06:50:17;;;;;;;6.67;6.17;;;18.80;99.90;;;;;;5053205;28;20455;-82
2023/06/10 06:52:44;;;;;;;6.93;6.33;;;18.90;99.90;;;;;;5046397;28;20612;-79
2023/06/10 06:55:11;;;;;;;6.23;5.80;;;19.00;99.90;;;;;;5046188;28;20588;-83
2023/06/10 06:57:38;;;;;;;6.83;6.23;;;19.00;99.90;;;;;;5047374;28;20547;-79
2023/06/10 07:00:06;;;;;;;6.40;5.80;;;19.40;99.90;;;;;;5047402;28;20566;-80
2023/06/10 07:02:33;;;;;;;8.70;6.40;;;19.50;99.90;;;;;;5047571;28;20478;-79
2023/06/10 07:05:01;;;;;;;9.83;5.90;;;19.00;99.90;;;;;;5046609;28;20465;-81
2023/06/10 07:07:28;;;;;;;6.20;5.70;;;18.90;99.90;;;;;;5047726;28;20495;-80
2023/06/10 07:09:55;;;;;;;8.13;7.33;;;18.70;99.90;;;;;;5048081;28;21034;-79
2023/06/10 07:12:23;;;;;;;8.27;7.63;;;19.00;99.90;;;;;;5045771;28;20545;-84
2023/06/10 07:14:50;;;;;;;6.40;5.90;;;19.40;99.90;;;;;;5049714;28;20475;-79
2023/06/10 07:17:18;;;;;;;7.17;6.57;;;19.10;99.90;;;;;;5051011;28;20598;-78
2023/06/10 07:19:45;;;;;;;8.33;7.63;;;19.30;99.90;;;;;;5046175;28;20465;-82
2023/06/10 07:22:13;;;;;;;8.77;7.87;;;19.10;99.90;;;;;;5037064;28;20465;-79
2023/06/10 07:24:40;;;;;;;8.10;7.30;;;19.30;99.90;;;;;;5047715;28;20456;-79
2023/06/10 07:27:07;;;;;;;7.93;7.23;;;19.30;99.90;;;;;;5047416;28;20448;-79
2023/06/10 07:29:35;;;;;;;7.97;7.27;;;19.40;99.90;;;;;;5047386;28;20469;-87
2023/06/10 07:32:03;;;;;;;8.83;8.13;;;19.50;99.90;;;;;;5047254;28;20452;-83
2023/06/10 07:34:30;;;;;;;9.37;8.47;;;20.10;99.90;;;;;;5046441;28;20569;-79
2023/06/10 07:36:57;;;;;;;10.07;7.40;;;20.00;99.90;;;;;;5046199;28;21122;-78
2023/06/10 07:39:25;;;;;;;9.60;7.77;;;20.10;99.90;;;;;;5044094;28;20538;-80
2023/06/10 07:41:53;;;;;;;7.93;7.33;;;20.10;99.90;;;;;;5045780;28;20539;-79
2023/06/10 07:44:21;;;;;;;9.37;8.57;;;20.20;99.90;;;;;;5046274;28;20479;-78
2023/06/10 07:46:48;;;;;;;9.10;8.30;;;20.40;99.90;;;;;;5046595;28;20444;-80
2023/06/10 07:49:14;;;;;;;9.93;9.13;;;20.10;99.90;;;;;;5042578;28;21075;-77
2023/06/10 07:51:42;;;;;;;8.20;7.40;;;20.30;99.90;;;;;;5047272;28;20496;-75
2023/06/10 07:54:09;;;;;;;7.90;7.20;;;20.40;99.90;;;;;;5038592;28;20480;-75
2023/06/10 07:56:37;;;;;;;9.07;8.17;;;20.50;99.90;;;;;;5045898;28;20473;-82
2023/06/10 07:59:04;;;;;;;9.17;8.40;;;20.10;99.90;;;;;;5046572;28;20508;-77
2023/06/10 08:01:32;;;;;;;7.97;7.37;;;20.50;99.90;;;;;;5047309;28;20445;-81
2023/06/10 08:03:59;;;;;;;7.50;6.90;;;20.90;99.90;;;;;;5045154;28;20469;-77
2023/06/10 08:06:26;;;;;;;7.80;7.20;;;20.90;99.90;;;;;;5042222;28;20947;-78
2023/06/10 08:08:53;;;;;;;8.23;7.33;;;20.50;99.90;;;;;;5045166;28;20441;-77
2023/06/10 08:11:20;;;;;;;7.73;7.00;;;20.50;99.90;;;;;;5043346;28;20486;-79
2023/06/10 08:13:48;;;;;;;8.80;8.10;;;20.60;99.90;;;;;;5046419;28;20477;-79
2023/06/10 08:16:15;;;;;;;11.13;7.43;;;20.90;99.90;;;;;;5046656;28;20515;-77
2023/06/10 08:18:42;;;;;;;7.50;6.80;;;21.10;99.90;;;;;;5044442;28;20982;-78
2023/06/10 08:21:09;;;;;;;6.73;6.13;;;21.60;99.90;;;;;;5045976;28;20493;-82
2023/06/10 08:23:36;;;;;;;6.90;6.30;;;22.20;99.90;;;;;;5046179;28;20441;-80
2023/06/10 08:26:03;;;;;;;7.23;6.60;;;22.60;99.90;;;;;;5047054;28;20441;-78
2023/06/10 08:28:30;;;;;;;6.03;5.53;;;21.80;99.90;;;;;;5043337;28;20469;-79
2023/06/10 08:30:58;;;;;;;6.37;5.87;;;21.90;99.90;;;;;;5043921;28;20465;-78
2023/06/10 08:33:25;;;;;;;7.50;6.80;;;22.20;99.90;;;;;;5047085;28;20530;-82
2023/06/10 08:35:52;;;;;;;6.77;6.27;;;21.60;99.90;;;;;;5043818;28;20485;-77
2023/06/10 08:38:19;;;;;;;9.23;7.00;;;21.70;99.90;;;;;;5047745;28;20481;-80
2023/06/10 08:40:46;;;;;;;5.93;5.47;;;21.70;99.90;;;;;;5044722;28;20883;-75
2023/06/10 08:43:21;;;;;;;5.53;5.13;;;21.90;99.90;;;;;;5045853;28;20481;-77
2023/06/10 08:45:50;;;;;;;6.53;6.03;;;21.70;99.90;;;;;;5037525;28;20457;-79
2023/06/10 08:48:20;;;;;;;5.90;5.40;;;21.70;99.90;;;;;;5037036;28;20558;-78
2023/06/10 08:50:48;;;;;;;8.40;7.67;;;22.10;99.90;;;;;;5034357;28;20458;-80
2023/06/10 08:53:19;;;;;;;5.33;4.93;;;22.00;99.90;;;;;;5045921;28;20466;-77
2023/06/10 08:55:51;;;;;;;5.83;5.33;;;21.90;99.90;;;;;;5045698;28;20506;-77
2023/06/10 08:58:19;;;;;;;7.17;5.77;;;22.10;99.90;;;;;;5044170;28;20493;-80
2023/06/10 09:00:47;;;;;;;7.30;6.17;;;22.70;99.90;;;;;;5045299;28;20451;-82
2023/06/10 09:03:14;;;;;;;5.20;4.80;;;22.40;99.90;;;;;;5047255;28;20593;-78
2023/06/10 09:05:43;;;;;;;6.50;5.93;;;22.30;99.90;;;;;;5043880;28;20952;-78
2023/06/10 09:08:11;;;;;;;6.30;5.70;;;22.50;99.90;;;;;;5044491;28;20547;-76
2023/06/10 09:10:38;;;;;;;4.63;4.27;;;22.20;99.90;;;;;;5045033;28;20493;-77
2023/06/10 09:13:06;;;;;;;5.00;4.60;;;22.10;99.90;;;;;;5040669;28;20555;-77
2023/06/10 09:15:33;;;;;;;4.40;4.00;;;22.20;99.90;;;;;;5044831;28;20517;-77
2023/06/10 09:18:00;;;;;;;5.90;5.50;;;22.40;99.90;;;;;;5042850;28;21353;-77
2023/06/10 09:20:27;;;;;;;5.07;4.70;;;22.70;99.90;;;;;;5048414;28;20464;-79
2023/06/10 09:22:55;;;;;;;6.67;6.07;;;23.30;99.90;;;;;;5053581;28;20499;-77
2023/06/10 09:25:36;;;;;;;4.90;4.50;;;23.40;99.90;;;;;;5049429;28;20437;-77
2023/06/10 09:28:04;;;;;;;5.80;5.37;;;23.60;99.90;;;;;;5052743;28;20449;-77
2023/06/10 09:30:32;;;;;;;6.67;5.83;;;24.00;99.90;;;;;;5049275;28;20465;-77
2023/06/10 09:32:59;;;;;;;4.40;4.10;;;24.00;99.70;;;;;;5044743;28;20914;-76
2023/06/10 09:35:27;;;;;;;5.43;5.03;;;23.60;98.60;;;;;;5045728;28;20517;-79
2023/06/10 09:37:57;;;;;;;5.60;5.20;;;23.30;99.30;;;;;;5047852;28;20560;-79
2023/06/10 09:40:24;;;;;;;5.70;5.30;;;22.70;99.90;;;;;;5048151;28;20473;-76
2023/06/10 09:42:55;;;;;;;5.67;5.27;;;22.50;99.90;;;;;;5046341;28;20458;-81
2023/06/10 09:45:23;;;;;;;4.90;4.40;;;22.70;99.90;;;;;;5049127;28;20464;-82
2023/06/10 09:47:53;;;;;;;5.27;4.87;;;22.90;99.90;;;;;;5050643;28;21199;-75
2023/06/10 09:50:20;;;;;;;6.00;5.50;;;22.70;99.90;;;;;;5046502;28;20535;-76
2023/06/10 09:52:47;;;;;;;6.27;5.77;;;22.40;99.90;;;;;;5047885;28;20861;-76
2023/06/10 09:55:16;;;;;;;5.63;5.13;;;22.70;99.90;;;;;;5045754;28;20490;-76
2023/06/10 09:57:47;;;;;;;5.17;4.77;;;23.10;99.90;;;;;;5045769;28;20794;-80
2023/06/10 10:00:16;;;;;;;4.77;4.47;;;23.00;99.90;;;;;;5042141;28;20534;-78
2023/06/10 10:02:48;;;;;;;4.63;4.33;;;23.40;99.90;;;;;;5041600;28;20464;-80
2023/06/10 10:05:15;;;;;;;4.77;4.37;;;23.90;99.90;;;;;;5045670;28;20461;-76
2023/06/10 10:07:42;;;;;;;4.70;4.30;;;23.90;99.90;;;;;;5046755;28;21123;-76
2023/06/10 10:10:10;;;;;;;4.00;3.70;;;23.90;99.90;;;;;;5047184;28;20489;-76
2023/06/10 10:12:39;;;;;;;5.77;5.27;;;24.40;99.40;;;;;;5040531;28;20474;-75
2023/06/10 10:15:08;;;;;;;3.87;3.57;;;25.00;97.40;;;;;;5046495;28;20518;-78
2023/06/10 10:17:38;;;;;;;4.00;3.80;;;25.40;96.20;;;;;;5048215;28;20551;-76
2023/06/10 10:20:08;;;;;;;5.63;5.23;;;25.70;97.80;;;;;;5043381;28;20463;-76
2023/06/10 10:22:38;;;;;;;5.70;5.20;;;25.70;96.00;;;;;;5044556;28;20503;-79
2023/06/10 10:25:11;;;;;;;4.40;4.10;;;25.60;94.10;;;;;;5045732;28;20950;-79
2023/06/10 10:27:44;;;;;;;5.50;3.87;;;26.10;94.70;;;;;;5048281;28;20590;-76
2023/06/10 10:30:13;;;;;;;5.83;4.10;;;26.20;95.20;;;;;;5048700;28;21115;-77
2023/06/10 10:32:48;;;;;;;3.97;3.77;;;26.30;94.20;;;;;;5046805;28;20538;-79
2023/06/10 10:35:18;;;;;;;3.20;3.00;;;26.60;93.40;;;;;;5047426;28;20871;-76
2023/06/10 10:37:46;;;;;;;3.57;3.37;;;26.60;92.20;;;;;;5045595;28;20437;-76
2023/06/10 10:40:14;;;;;;;3.93;3.63;;;26.30;91.80;;;;;;5048491;28;20464;-77
2023/06/10 10:42:43;;;;;;;4.63;4.33;;;26.50;91.30;;;;;;5043017;28;20476;-78
2023/06/10 10:45:11;;;;;;;4.57;4.27;;;26.50;91.50;;;;;;5051425;28;20460;-77
2023/06/10 10:47:39;;;;;;;4.23;3.93;;;26.60;90.40;;;;;;5042777;28;20550;-79
2023/06/10 10:50:15;;;;;;;3.77;3.53;;;25.50;90.80;;;;;;5046602;28;20454;-80
2023/06/10 10:52:54;;;;;;;4.17;3.97;;;25.50;93.30;;;;;;5048182;28;20492;-77
2023/06/10 10:55:21;;;;;;;3.90;3.60;;;25.90;92.40;;;;;;5047394;28;20510;-79
2023/06/10 10:57:57;;;;;;;3.87;3.60;;;25.40;91.50;;;;;;5050694;28;20510;-77
2023/06/10 11:00:31;;;;;;;3.20;3.00;;;25.40;93.00;;;;;;5043821;28;20535;-79
2023/06/10 11:03:07;;;;;;;4.23;3.93;;;25.40;91.90;;;;;;5050170;28;20947;-80
2023/06/10 11:05:39;;;;;;;3.97;3.60;;;25.20;93.50;;;;;;5049394;28;20473;-81
2023/06/10 11:08:07;;;;;;;2.83;2.63;;;25.00;94.90;;;;;;5043910;28;20532;-76
2023/06/10 11:10:35;;;;;;;3.83;3.60;;;24.90;93.60;;;;;;5051068;28;20472;-78
2023/06/10 11:13:09;;;;;;;3.33;3.00;;;25.50;94.40;;;;;;5045324;28;20955;-78
2023/06/10 11:15:40;;;;;;;3.60;3.30;;;25.70;91.30;;;;;;5046876;28;20574;-79
2023/06/10 11:18:15;;;;;;;4.10;3.90;;;26.70;92.70;;;;;;5044942;28;21288;-77
2023/06/10 11:20:54;;;;;;;3.93;3.73;;;26.70;90.80;;;;;;5042188;28;20452;-82
2023/06/10 11:23:35;;;;;;;2.90;2.70;;;27.50;88.30;;;;;;5047355;28;20940;-76
2023/06/10 11:26:17;;;;;;;7.87;3.00;;;27.70;88.40;;;;;;5037384;28;20498;-77
2023/06/10 11:29:04;;;;;;;3.00;2.80;;;27.20;86.30;;;;;;5048478;28;20546;-77
2023/06/10 11:31:32;;;;;;;3.40;3.20;;;26.30;84.80;;;;;;5047229;28;20449;-77
2023/06/10 11:34:01;;;;;;;3.87;3.60;;;26.00;88.40;;;;;;5046332;28;20963;-81
2023/06/10 11:36:28;;;;;;;3.77;3.47;;;26.80;91.60;;;;;;5049253;28;20551;-81
2023/06/10 11:38:58;;;;;;;3.30;3.10;;;27.40;85.20;;;;;;5041564;28;20493;-77
2023/06/10 11:41:26;;;;;;;3.97;3.67;;;27.60;85.60;;;;;;5051082;28;20448;-77
2023/06/10 11:43:55;;;;;;;3.57;3.37;;;27.20;86.50;;;;;;5054498;28;20457;-83
2023/06/10 11:46:24;;;;;;;3.27;3.07;;;27.40;84.40;;;;;;5041709;28;21203;-77
2023/06/10 11:48:52;;;;;;;3.40;3.20;;;27.60;89.10;;;;;;5052775;28;20475;-76
2023/06/10 11:51:19;;;;;;;3.90;3.60;;;27.10;82.10;;;;;;5047600;28;20842;-77
2023/06/10 11:53:46;;;;;;;5.47;3.67;;;26.40;87.30;;;;;;5045089;28;20452;-79
2023/06/10 11:56:13;;;;;;;3.70;3.50;;;25.70;87.70;;;;;;5036392;28;20536;-77
2023/06/10 11:58:45;;;;;;;5.13;3.40;;;25.60;90.20;;;;;;5047222;28;20508;-79
2023/06/10 12:01:20;;;;;;;4.90;4.50;;;25.40;91.80;;;;;;5052054;28;20937;-77
2023/06/10 12:03:48;;;;;;;4.37;4.07;;;25.60;91.00;;;;;;5045928;28;20454;-77
2023/06/10 12:06:15;;;;;;;3.20;3.00;;;25.20;89.20;;;;;;5047787;28;20884;-77
2023/06/10 12:08:43;;;;;;;5.03;4.10;;;25.40;90.10;;;;;;5046628;28;20495;-79
2023/06/10 12:11:11;;;;;;;3.40;3.10;;;25.40;90.40;;;;;;5043203;28;20551;-79
2023/06/10 12:13:48;;;;;;;4.00;3.70;;;25.10;91.10;;;;;;5047210;28;20456;-77
2023/06/10 12:16:15;;;;;;;3.57;3.27;;;25.20;91.90;;;;;;5046770;28;20571;-77
2023/06/10 12:18:44;;;;;;;4.53;4.23;;;25.80;92.20;;;;;;5046182;28;20485;-83
2023/06/10 12:21:19;;;;;;;4.70;4.40;;;26.40;90.40;;;;;;5043606;28;20923;-80
2023/06/10 12:24:07;;;;;;;5.20;3.37;;;26.90;86.10;;;;;;5045660;28;20473;-77
2023/06/10 12:26:44;;;;;;;3.80;3.60;;;27.40;89.80;;;;;;5043796;28;20922;-76
2023/06/10 12:29:20;;;;;;;4.70;3.50;;;28.20;76.20;;;;;;5048084;28;20453;-78
2023/06/10 12:31:58;;;;;;;4.23;3.93;;;28.10;73.50;;;;;;5043503;28;20463;-80
2023/06/10 12:34:32;;;;;;;3.33;3.13;;;27.70;73.40;;;;;;5043975;28;20518;-77
2023/06/10 12:37:02;;;;;;;2.90;2.70;;;28.00;74.80;;;;;;5044334;28;20489;-77
2023/06/10 12:39:29;;;;;;;3.67;3.37;;;27.20;75.30;;;;;;5048862;28;20457;-77
2023/06/10 12:41:56;;;;;;;3.57;3.27;;;27.10;78.90;;;;;;5046022;28;20442;-80
2023/06/10 12:44:36;;;;;;;2.50;2.13;;;26.20;78.50;;;;;;5046338;28;20493;-76
2023/06/10 12:47:09;;;;;;;2.73;2.60;;;26.30;71.50;;;;;;5045918;28;20487;-78
2023/06/10 12:49:37;;;;;;;4.13;3.20;;;25.90;79.90;;;;;;5043536;28;20460;-79
2023/06/10 12:52:05;;;;;;;4.40;4.10;;;24.30;92.60;;;;;;5044972;28;20462;-77